Terminal Aerodrome Forecast
Issued by NWS

Home | Current Version | Previous Version | Text Only | Print | Product List | Glossary Off
Versions: 1 2 3 4 5 6 7 8 9 10 11 12 13 14 15 16 17 18 19 20

000
FTUS41 KCLE 241100
TAFFDY
TAF
KFDY 241139Z 2412/2512 20012KT P6SM BKN150
     FM241700 22018G25KT P6SM SCT025 OVC120
     FM242300 25012G20KT 6SM -SHSN BKN030 OVC050
     FM251000 29010KT 4SM -SHSN OVC015=

USA.gov is the U.S. government's official web portal to all federal, state and local government web resources and services.